To NAV CANADA Home Page Login to a new session Search on AWWS site Feedback and Comments Disclaimer Vers la page française équivalente Tips FAQ What's new on the site To the Forecasts and Observations / NOTAM section To "File a Flight Plan" website Publications and other links Update of the User's profile FIC Telephone Numbers My Weather Data Folder Route Weather Data Regional Weather Data Local Weather Data To the Forecasts and Observations / NOTAM section
Request Generated 03/28/2015 at 23:48:23 UTC . Weather information available at that time is displayed.

METAR/TAF

KITCHENER/WATERLOO/ON    (show WxCam)

METAR CYKF 282300Z AUTO 31010G20KT 9SM CLR M04/M12 A3018 RMK SLP241=
METAR CYKF 282200Z AUTO 31014KT 9SM CLR M03/M13 A3016 RMK SLP233=
METAR CYKF 282100Z AUTO 30018KT 9SM CLR M02/M14 A3015 RMK SLP228=

TAF CYKF 281938Z 2820/2904 32012G22KT P6SM SKC
BECMG 2822/2824 33010KT
RMK FCST BASED ON AUTO OBS. NXT FCST BY 290200Z=
Your time UTC time
Weather data provided by Environment Canada and NAV CANADA